Time;durP1;ratioP1;P1;durP2;ratioP2;P2;SDS_P1;SDS_P2;PMS_P1;PMS_P2;Temp;Humidity;BMP_temperature;BMP_pressure;BME280_temperature;BME280_humidity;BME280_pressure;Samples;Min_cycle;Max_cycle;Signal;HPM_P1;HPM_P2
2022/09/05 00:02:40;;;;;;;10.73;5.40;;;;;;;20.85;58.31;101759.53;5051392;28;20055;-56
2022/09/05 00:05:46;;;;;;;9.23;4.88;;;;;;;20.80;58.55;101757.72;5034102;28;20418;-55
2022/09/05 00:08:58;;;;;;;7.60;4.78;;;;;;;20.79;58.47;101755.28;5046466;28;20490;-56
2022/09/05 00:11:48;;;;;;;13.75;5.60;;;;;;;20.79;58.60;101756.09;5037953;28;20044;-57
2022/09/05 00:14:19;;;;;;;13.18;5.03;;;;;;;20.76;58.65;101759.50;5054832;28;20041;-59
2022/09/05 00:17:40;;;;;;;8.52;4.90;;;;;;;20.75;58.54;101748.72;5054777;28;20045;-59
2022/09/05 00:20:59;;;;;;;9.77;4.60;;;;;;;20.76;58.50;101753.97;5062741;28;20128;-58
2022/09/05 00:23:47;;;;;;;11.35;5.38;;;;;;;20.76;58.50;101747.59;5037402;28;20037;-54
2022/09/05 00:27:05;;;;;;;10.95;4.88;;;;;;;20.76;58.48;101751.19;5067860;28;20083;-54
2022/09/05 00:29:45;;;;;;;10.95;4.90;;;;;;;20.77;58.34;101746.47;5044229;28;20048;-56
2022/09/05 00:32:32;;;;;;;10.10;5.35;;;;;;;20.75;58.20;101740.41;5067391;28;20033;-59
2022/09/05 00:35:00;;;;;;;10.57;4.85;;;;;;;20.70;58.42;101744.13;5055717;28;20068;-53
2022/09/05 00:37:43;;;;;;;9.43;4.75;;;;;;;20.69;58.44;101741.69;5036447;28;20380;-57
2022/09/05 00:40:13;;;;;;;7.90;4.80;;;;;;;20.68;58.55;101743.63;5061124;28;20051;-55
2022/09/05 00:42:49;;;;;;;9.88;4.80;;;;;;;20.69;58.33;101745.25;5075527;28;20418;-57
2022/09/05 00:45:32;;;;;;;8.43;4.80;;;;;;;20.70;58.35;101741.34;5043904;28;20111;-57
2022/09/05 00:48:05;;;;;;;6.50;4.25;;;;;;;20.71;58.14;101745.78;5063114;28;20045;-61
2022/09/05 00:51:01;;;;;;;8.48;4.78;;;;;;;20.73;58.11;101737.94;5057321;28;20071;-57
2022/09/05 00:53:56;;;;;;;7.95;4.32;;;;;;;20.75;58.02;101744.00;5057308;28;20036;-56
2022/09/05 00:56:50;;;;;;;10.88;5.20;;;;;;;20.75;57.74;101738.44;5042807;28;20044;-59
2022/09/05 00:59:29;;;;;;;9.00;4.75;;;;;;;20.76;58.15;101739.28;5033536;28;20064;-57
2022/09/05 01:02:18;;;;;;;9.55;4.90;;;;;;;20.77;57.86;101746.47;5057275;28;20411;-59
2022/09/05 01:04:51;;;;;;;7.93;4.45;;;;;;;20.76;58.20;101742.88;5056303;28;20041;-56
2022/09/05 01:07:47;;;;;;;12.57;4.97;;;;;;;20.77;58.17;101741.72;5054010;28;20036;-59
2022/09/05 01:10:46;;;;;;;10.43;5.30;;;;;;;20.75;58.21;101748.72;5047677;28;20053;-57
2022/09/05 01:13:33;;;;;;;9.73;4.70;;;;;;;20.71;58.38;101747.69;5055009;28;20091;-54
2022/09/05 01:16:05;;;;;;;7.38;4.47;;;;;;;20.70;58.46;101749.66;5053184;28;20041;-55
2022/09/05 01:19:04;;;;;;;7.00;4.55;;;;;;;20.71;58.60;101748.53;5053781;28;20106;-57
2022/09/05 01:22:10;;;;;;;8.45;5.28;;;;;;;20.72;58.44;101747.41;5038290;28;20056;-56
2022/09/05 01:24:40;;;;;;;8.75;4.90;;;;;;;20.63;58.82;101747.31;5058245;28;20059;-56
2022/09/05 01:27:36;;;;;;;9.35;4.93;;;;;;;20.54;58.91;101740.88;5056170;28;20029;-54
2022/09/05 01:30:53;;;;;;;10.75;5.13;;;;;;;20.48;59.40;101744.91;5058142;28;21706;-57
2022/09/05 01:33:35;;;;;;;8.30;5.20;;;;;;;20.47;59.47;101742.44;5049255;28;20131;-57
2022/09/05 01:36:25;;;;;;;11.00;5.15;;;;;;;20.43;59.65;101737.53;5074921;28;20036;-57
2022/09/05 01:38:58;;;;;;;10.98;5.28;;;;;;;20.39;59.91;101735.69;5049900;28;20506;-58
2022/09/05 01:42:07;;;;;;;10.20;5.13;;;;;;;20.30;60.35;101743.94;5056664;28;20040;-58
2022/09/05 01:44:47;;;;;;;11.90;6.00;;;;;;;20.25;60.76;101735.72;5057744;28;20071;-53
2022/09/05 01:47:52;;;;;;;10.85;5.88;;;;;;;20.23;61.05;101732.47;5055116;28;20044;-54
2022/09/05 01:50:40;;;;;;;11.35;5.80;;;;;;;20.20;61.21;101741.38;5054224;28;20044;-58
2022/09/05 01:53:11;;;;;;;;;;;;;;;20.18;61.31;101732.59;5061772;28;20056;-55
2022/09/05 01:56:09;;;;;;;7.80;5.07;;;;;;;20.16;61.55;101732.06;5072879;28;19958;-56
2022/09/05 01:58:53;;;;;;;10.65;5.57;;;;;;;20.17;61.73;101728.16;5047867;28;20040;-55
2022/09/05 02:01:25;;;;;;;8.98;5.35;;;;;;;20.17;61.71;101730.94;5075984;28;20410;-54
2022/09/05 02:04:08;;;;;;;11.15;6.15;;;;;;;20.18;62.09;101735.38;5028963;28;20049;-55
2022/09/05 02:06:47;;;;;;;9.77;6.18;;;;;;;20.13;62.26;101733.53;5054092;28;20052;-54
2022/09/05 02:09:34;;;;;;;7.93;5.55;;;;;;;20.10;62.53;101734.13;5052246;28;20490;-56
2022/09/05 02:12:30;;;;;;;10.52;6.05;;;;;;;20.10;62.49;101738.84;5040279;28;20517;-58
2022/09/05 02:15:15;;;;;;;11.70;6.45;;;;;;;20.07;62.72;101733.94;5035986;28;20056;-55
2022/09/05 02:17:42;;;;;;;9.73;5.93;;;;;;;20.05;62.68;101728.72;5050297;28;20029;-55
2022/09/05 02:20:30;;;;;;;8.77;5.60;;;;;;;20.07;62.40;101733.94;5053606;28;20048;-57
2022/09/05 02:23:28;;;;;;;11.35;6.32;;;;;;;20.08;62.74;101730.03;5052714;28;20037;-54
2022/09/05 02:26:24;;;;;;;10.65;6.10;;;;;;;20.08;62.86;101730.03;5040831;28;20071;-58
2022/09/05 02:29:04;;;;;;;11.77;5.75;;;;;;;20.05;63.05;101737.00;5036609;28;20048;-53
2022/09/05 02:32:00;;;;;;;10.85;6.00;;;;;;;19.98;63.18;101737.41;5061315;28;20101;-54
2022/09/05 02:34:44;;;;;;;11.75;7.13;;;;;;;19.98;63.45;101739.38;5039013;28;20040;-57
2022/09/05 02:37:58;;;;;;;11.07;6.40;;;;;;;19.93;63.59;101734.75;5074340;28;20478;-54
2022/09/05 02:40:58;;;;;;;19.20;7.25;;;;;;;19.94;63.82;101743.88;4965645;28;20046;-56
2022/09/05 02:44:07;;;;;;;11.05;6.70;;;;;;;19.94;63.89;101741.94;5044670;28;20182;-54
2022/09/05 02:47:09;;;;;;;10.95;6.47;;;;;;;19.94;63.82;101750.25;5048692;28;20032;-55
2022/09/05 02:50:04;;;;;;;11.38;6.70;;;;;;;19.96;63.95;101739.69;5063648;28;20033;-54
2022/09/05 02:52:53;;;;;;;10.60;7.10;;;;;;;19.92;64.20;101741.44;5052504;28;20094;-56
2022/09/05 02:56:25;;;;;;;11.63;7.13;;;;;;;19.87;64.33;101746.25;5038418;28;20045;-57
2022/09/05 02:59:27;;;;;;;12.68;6.80;;;;;;;19.81;64.91;101739.19;4978744;28;20042;-55
2022/09/05 03:02:20;;;;;;;13.35;6.88;;;;;;;19.80;65.04;101735.63;4991490;28;20076;-58
2022/09/05 03:04:53;;;;;;;13.60;7.22;;;;;;;19.77;65.27;101747.25;5050581;28;20056;-55
2022/09/05 03:08:08;;;;;;;14.38;7.22;;;;;;;19.73;65.33;101747.06;5052856;28;20048;-56
2022/09/05 03:10:57;;;;;;;12.10;6.65;;;;;;;19.71;65.81;101742.97;5051952;28;20091;-54
2022/09/05 03:13:37;;;;;;;13.02;7.15;;;;;;;19.65;65.90;101744.16;5034806;28;20045;-53
2022/09/05 03:16:56;;;;;;;14.05;7.18;;;;;;;19.61;66.36;101743.16;5052490;28;20041;-55
2022/09/05 03:19:43;;;;;;;12.82;7.03;;;;;;;19.55;66.63;101739.66;5052211;28;20094;-57
2022/09/05 03:22:35;;;;;;;10.88;7.47;;;;;;;19.50;66.72;101742.53;5040206;28;20048;-54
2022/09/05 03:25:34;;;;;;;11.93;8.10;;;;;;;19.46;66.94;101747.88;5050080;28;20183;-53
2022/09/05 03:28:26;;;;;;;14.43;7.20;;;;;;;19.45;67.21;101743.44;5050967;28;20082;-57
2022/09/05 03:31:02;;;;;;;13.52;7.68;;;;;;;19.48;67.12;101745.63;5048248;28;20044;-58
2022/09/05 03:33:54;;;;;;;13.93;7.57;;;;;;;19.45;67.49;101748.16;5061944;28;20045;-54
2022/09/05 03:36:40;;;;;;;10.50;7.55;;;;;;;19.37;67.92;101755.22;5073047;28;20037;-54
2022/09/05 03:39:14;;;;;;;10.02;6.93;;;;;;;19.33;68.22;101748.66;5044085;28;20037;-54
2022/09/05 03:42:17;;;;;;;13.15;7.40;;;;;;;19.31;68.01;101753.66;5053018;28;20043;-56
2022/09/05 03:44:54;;;;;;;19.23;7.05;;;;;;;19.31;68.43;101756.41;5072615;28;20058;-56
2022/09/05 03:47:47;;;;;;;13.82;6.78;;;;;;;19.32;68.49;101758.06;5065106;28;20045;-57
2022/09/05 03:50:43;;;;;;;12.15;7.82;;;;;;;19.29;68.73;101753.13;5055489;28;20052;-54
2022/09/05 03:53:53;;;;;;;13.60;7.82;;;;;;;19.24;68.74;101751.31;5076268;28;20040;-53
2022/09/05 03:56:58;;;;;;;13.05;7.65;;;;;;;19.19;69.06;101743.09;5014424;28;20112;-52
2022/09/05 03:59:58;;;;;;;12.52;7.88;;;;;;;19.15;69.51;101747.59;5058769;28;20452;-53
2022/09/05 04:02:28;;;;;;;12.10;7.18;;;;;;;19.12;69.51;101743.50;5013276;28;20099;-53
2022/09/05 04:05:25;;;;;;;15.30;8.10;;;;;;;19.15;69.51;101742.91;5062214;28;20086;-58
2022/09/05 04:08:26;;;;;;;10.30;7.15;;;;;;;19.15;69.59;101742.91;5056764;28;20049;-54
2022/09/05 04:11:27;;;;;;;14.93;8.60;;;;;;;19.10;69.76;101736.66;5045548;28;20050;-54
2022/09/05 04:14:01;;;;;;;16.35;7.85;;;;;;;19.09;69.87;101741.34;5038186;28;20115;-54
2022/09/05 04:16:59;;;;;;;13.90;7.38;;;;;;;19.12;69.83;101739.91;5053197;28;20415;-54
2022/09/05 04:19:39;;;;;;;13.68;7.53;;;;;;;19.09;69.89;101746.03;5050237;28;20450;-54
2022/09/05 04:22:25;;;;;;;18.15;7.05;;;;;;;19.06;70.06;101757.72;5025934;28;20051;-56
2022/09/05 04:24:59;;;;;;;16.88;8.27;;;;;;;19.00;70.33;101751.47;5036012;28;20041;-53
2022/09/05 04:27:48;;;;;;;16.10;7.03;;;;;;;19.00;70.32;101751.47;5035184;28;20045;-54
2022/09/05 04:30:24;;;;;;;14.00;7.97;;;;;;;18.97;70.36;101754.00;5034659;28;20080;-56
2022/09/05 04:33:27;;;;;;;11.57;6.90;;;;;;;18.93;70.65;101756.56;5047867;28;20410;-53
2022/09/05 04:36:18;;;;;;;14.52;7.88;;;;;;;18.92;70.57;101749.38;5050416;28;20429;-56
2022/09/05 04:39:04;;;;;;;11.50;7.68;;;;;;;18.88;70.70;101759.38;5055677;28;20045;-53
2022/09/05 04:41:38;;;;;;;12.10;7.82;;;;;;;18.83;70.88;101756.69;5048306;28;20029;-56
2022/09/05 04:44:15;;;;;;;15.13;7.78;;;;;;;18.78;71.23;101751.25;5048901;28;20044;-55
2022/09/05 04:46:50;;;;;;;14.70;8.25;;;;;;;18.76;71.36;101754.34;5037533;28;20406;-55
2022/09/05 04:49:29;;;;;;;12.60;7.05;;;;;;;18.78;71.21;101745.75;5054071;28;20037;-57
2022/09/05 04:52:19;;;;;;;13.50;7.47;;;;;;;18.73;71.42;101752.94;5012704;28;20411;-55
2022/09/05 04:55:16;;;;;;;12.73;7.70;;;;;;;18.72;71.36;101765.13;5052184;28;20383;-58
2022/09/05 04:57:57;;;;;;;12.25;8.13;;;;;;;18.77;71.56;101771.72;5021642;28;20041;-57
2022/09/05 05:01:00;;;;;;;14.05;7.20;;;;;;;18.90;71.04;101771.75;5027847;28;20093;-55
2022/09/05 05:03:48;;;;;;;12.23;5.88;;;;;;;19.02;70.39;101779.56;5034240;28;20037;-57
2022/09/05 05:06:50;;;;;;;11.18;7.30;;;;;;;19.07;69.89;101774.00;5037068;28;20453;-57
2022/09/05 05:09:59;;;;;;;14.27;6.90;;;;;;;19.07;69.62;101768.47;5040890;28;20050;-54
2022/09/05 05:13:02;;;;;;;13.90;7.75;;;;;;;19.07;69.67;101768.47;5034468;28;20100;-54
2022/09/05 05:16:15;;;;;;;17.30;8.32;;;;;;;18.94;70.41;101763.69;5029118;28;20044;-55
2022/09/05 05:19:30;;;;;;;19.70;7.63;;;;;;;18.85;70.96;101779.31;5037918;28;20041;-55
2022/09/05 05:22:00;;;;;;;16.52;6.97;;;;;;;18.78;71.35;101776.13;5023416;28;20053;-57
2022/09/05 05:24:32;;;;;;;12.38;6.93;;;;;;;18.77;71.42;101780.81;5035478;28;20049;-59
2022/09/05 05:27:24;;;;;;;13.23;7.60;;;;;;;18.76;71.69;101783.84;5050018;28;20040;-51
2022/09/05 05:30:05;;;;;;;13.23;7.85;;;;;;;18.72;71.87;101776.16;5043318;28;20091;-57
2022/09/05 05:32:38;;;;;;;15.32;8.35;;;;;;;18.72;72.21;101772.59;5035757;28;20041;-56
2022/09/05 05:35:20;;;;;;;13.20;8.32;;;;;;;18.73;72.07;101777.78;5041635;28;20049;-56
2022/09/05 05:37:56;;;;;;;11.75;7.47;;;;;;;18.79;72.02;101775.00;5038866;28;20059;-58
2022/09/05 05:40:26;;;;;;;16.05;7.93;;;;;;;18.80;72.02;101776.63;5051121;28;20488;-59
2022/09/05 05:43:14;;;;;;;12.18;8.15;;;;;;;18.79;72.19;101772.25;5046410;28;20060;-57
2022/09/05 05:45:42;;;;;;;14.10;7.45;;;;;;;18.79;72.24;101773.06;5032976;28;20091;-56
2022/09/05 05:48:19;;;;;;;16.48;7.82;;;;;;;18.81;72.24;101770.81;5047829;28;20454;-55
2022/09/05 05:50:56;;;;;;;11.75;7.25;;;;;;;18.85;72.17;101782.06;5037693;28;20050;-57
2022/09/05 05:53:53;;;;;;;12.30;7.00;;;;;;;18.96;71.79;101788.25;5034054;28;20056;-57
2022/09/05 05:56:37;;;;;;;15.93;9.05;;;;;;;19.04;71.47;101791.16;5047432;28;20045;-59
2022/09/05 05:59:26;;;;;;;15.40;8.00;;;;;;;19.09;70.98;101784.72;5026548;28;20527;-56
2022/09/05 06:01:57;;;;;;;12.82;7.78;;;;;;;19.13;70.55;101781.06;5033463;28;20050;-55
2022/09/05 06:04:46;;;;;;;15.30;8.38;;;;;;;19.18;70.38;101784.84;5033115;28;20132;-55
2022/09/05 06:07:36;;;;;;;20.85;7.97;;;;;;;19.19;70.40;101790.06;5031550;28;20045;-54
2022/09/05 06:10:29;;;;;;;15.45;7.47;;;;;;;19.19;70.67;101797.53;5032368;28;20042;-55
2022/09/05 06:13:31;;;;;;;14.75;9.20;;;;;;;19.21;70.60;101795.28;5033882;28;20045;-54
2022/09/05 06:16:31;;;;;;;14.45;7.63;;;;;;;19.26;70.59;101797.97;5032337;28;20434;-55
2022/09/05 06:19:20;;;;;;;13.20;7.53;;;;;;;19.30;70.42;101799.00;5033466;28;20045;-56
2022/09/05 06:21:57;;;;;;;15.50;8.27;;;;;;;19.31;70.48;101806.16;5033006;28;20049;-58
2022/09/05 06:25:13;;;;;;;16.05;9.32;;;;;;;19.34;70.10;101797.28;5033319;28;20049;-52
2022/09/05 06:28:05;;;;;;;17.52;7.50;;;;;;;19.39;70.25;101797.19;4682549;28;10001491;-53
2022/09/05 06:30:49;;;;;;;12.55;7.20;;;;;;;19.41;70.30;101799.63;5028768;28;20038;-56
2022/09/05 06:33:54;;;;;;;10.77;6.82;;;;;;;19.45;69.85;101807.00;5036936;28;20410;-58
2022/09/05 06:36:25;;;;;;;13.70;8.20;;;;;;;19.49;70.00;101807.25;5042707;28;20038;-54
2022/09/05 06:39:14;;;;;;;10.68;6.80;;;;;;;19.54;69.49;101810.72;5041737;28;20509;-55
2022/09/05 06:42:10;;;;;;;15.35;7.82;;;;;;;19.61;69.23;101809.50;5036201;28;20620;-57
2022/09/05 06:45:34;;;;;;;15.13;8.10;;;;;;;19.65;69.01;101816.06;5050016;28;20053;-53
2022/09/05 06:48:31;;;;;;;12.82;7.20;;;;;;;19.68;68.87;101812.72;5035676;28;20037;-54
2022/09/05 06:51:39;;;;;;;12.40;7.13;;;;;;;19.76;68.41;101807.28;5039110;28;20172;-54
2022/09/05 06:54:49;;;;;;;14.65;6.65;;;;;;;19.81;68.05;101814.66;5045024;28;20062;-58
2022/09/05 06:57:54;;;;;;;13.98;7.18;;;;;;;19.84;68.12;101805.75;5030827;28;20057;-55
2022/09/05 07:00:31;;;;;;;22.58;10.25;;;;;;;19.86;67.86;101806.28;5034455;28;20052;-55
2022/09/05 07:03:29;;;;;;;17.50;8.10;;;;;;;19.92;67.50;101813.34;5045239;28;20128;-55
2022/09/05 07:06:09;;;;;;;16.38;8.15;;;;;;;19.95;67.61;101806.38;5030994;28;20112;-56
2022/09/05 07:09:05;;;;;;;15.82;7.60;;;;;;;19.99;67.42;101811.00;5042410;28;20569;-56
2022/09/05 07:12:03;;;;;;;21.80;8.57;;;;;;;20.03;67.28;101810.38;5032775;28;20041;-58
2022/09/05 07:14:36;;;;;;;17.80;8.52;;;;;;;20.08;67.43;101813.03;5059366;28;20044;-57
2022/09/05 07:17:23;;;;;;;15.95;7.68;;;;;;;20.10;67.38;101805.25;5040587;28;20049;-57
2022/09/05 07:20:00;;;;;;;15.07;7.10;;;;;;;20.15;67.53;101805.13;5036348;28;20049;-58
2022/09/05 07:22:35;;;;;;;18.65;8.07;;;;;;;20.22;66.84;101813.84;5053761;28;20056;-58
2022/09/05 07:25:19;;;;;;;18.95;7.88;;;;;;;20.29;66.70;101814.25;5053302;28;20196;-57
2022/09/05 07:28:18;;;;;;;19.48;7.50;;;;;;;20.35;65.95;101817.75;5035973;28;20064;-56
2022/09/05 07:31:07;;;;;;;14.27;8.45;;;;;;;20.37;66.06;101815.47;5043788;28;20061;-59
2022/09/05 07:33:36;;;;;;;13.77;6.68;;;;;;;20.40;66.22;101815.66;5063083;28;20097;-57
2022/09/05 07:36:14;;;;;;;12.57;6.22;;;;;;;20.43;65.90;101809.50;5055379;28;20055;-59
2022/09/05 07:38:42;;;;;;;12.98;6.90;;;;;;;20.46;66.01;101807.25;5069654;28;20048;-59
2022/09/05 07:41:30;;;;;;;12.43;6.45;;;;;;;20.47;65.93;101811.63;5036040;28;20048;-61
2022/09/05 07:44:22;;;;;;;11.45;6.43;;;;;;;20.49;65.56;101823.22;5038825;28;20053;-61
2022/09/05 07:46:57;;;;;;;20.27;6.93;;;;;;;20.51;66.16;101815.44;5046768;28;20048;-62
2022/09/05 07:49:27;;;;;;;14.07;7.03;;;;;;;20.53;66.31;101819.53;5041090;28;20052;-56
2022/09/05 07:52:04;;;;;;;15.13;6.70;;;;;;;20.59;66.36;101817.50;5068583;28;20037;-58
2022/09/05 07:54:57;;;;;;;14.07;6.50;;;;;;;20.65;65.91;101821.78;5044086;28;20086;-62
2022/09/05 07:57:46;;;;;;;14.07;7.10;;;;;;;20.71;65.45;101823.31;5073661;28;20051;-57
2022/09/05 08:00:24;;;;;;;12.25;6.95;;;;;;;20.74;65.05;101825.47;5060792;28;20071;-60
2022/09/05 08:03:08;;;;;;;18.10;6.82;;;;;;;20.79;64.25;101825.34;5046733;28;20037;-57
2022/09/05 08:05:45;;;;;;;15.90;8.00;;;;;;;20.82;64.03;101819.16;5020491;28;20070;-59
2022/09/05 08:08:22;;;;;;;16.30;7.18;;;;;;;20.84;63.83;101824.41;5044928;28;20052;-59
2022/09/05 08:10:54;;;;;;;17.67;7.57;;;;;;;20.87;64.02;101831.25;5055871;28;20045;-61
2022/09/05 08:13:48;;;;;;;15.40;7.95;;;;;;;20.91;64.14;101832.28;5051610;28;20114;-58
2022/09/05 08:16:21;;;;;;;18.00;8.38;;;;;;;20.97;63.93;101833.78;5047564;28;20047;-61
2022/09/05 08:19:07;;;;;;;15.05;8.65;;;;;;;21.01;63.19;101832.84;5050560;28;20040;-58
2022/09/05 08:21:41;;;;;;;15.50;8.30;;;;;;;21.05;62.91;101833.03;5070460;28;20044;-61
2022/09/05 08:24:31;;;;;;;15.20;7.85;;;;;;;21.08;63.15;101834.38;5072734;28;20056;-59
2022/09/05 08:27:14;;;;;;;13.02;6.22;;;;;;;21.13;63.14;101837.00;5049408;28;20046;-58
2022/09/05 08:30:06;;;;;;;13.07;8.05;;;;;;;21.17;63.25;101833.28;5051665;28;20048;-59
2022/09/05 08:33:18;;;;;;;11.38;6.68;;;;;;;21.23;63.20;101840.34;5042441;28;20045;-52
2022/09/05 08:36:13;;;;;;;13.20;7.65;;;;;;;21.29;62.63;101835.50;5057841;28;20409;-54
2022/09/05 08:38:42;;;;;;;12.60;6.35;;;;;;;21.35;61.19;101844.50;5055267;28;20041;-54
2022/09/05 08:41:16;;;;;;;10.90;5.68;;;;;;;21.39;59.18;101839.97;5070255;28;20044;-52
2022/09/05 08:44:04;;;;;;;10.45;5.78;;;;;;;21.43;59.09;101840.97;5036128;28;20475;-52
2022/09/05 08:46:56;;;;;;;10.95;5.45;;;;;;;21.49;58.77;101832.22;5044621;28;20562;-55
2022/09/05 08:49:38;;;;;;;12.20;5.90;;;;;;;21.53;58.56;101831.56;5046266;28;20045;-50
2022/09/05 08:52:31;;;;;;;9.43;5.47;;;;;;;21.60;57.87;101838.31;5050219;28;20045;-52
2022/09/05 08:55:31;;;;;;;10.10;5.10;;;;;;;21.66;57.82;101833.44;5049311;28;20041;-56
2022/09/05 08:58:20;;;;;;;12.75;5.35;;;;;;;21.76;56.85;101829.56;5018389;28;20056;-54
2022/09/05 09:00:55;;;;;;;10.50;4.75;;;;;;;21.82;57.26;101831.09;5051881;28;20044;-57
2022/09/05 09:04:07;;;;;;;17.35;4.78;;;;;;;21.82;56.82;101820.81;5033920;28;20182;-54
2022/09/05 09:06:53;;;;;;;13.75;5.18;;;;;;;21.84;56.59;101824.06;5051633;28;20037;-55
2022/09/05 09:09:53;;;;;;;10.15;4.57;;;;;;;21.87;56.41;101812.34;5050920;28;20064;-55
2022/09/05 09:12:58;;;;;;;12.68;5.07;;;;;;;21.96;55.78;101815.16;5045580;28;20040;-51
2022/09/05 09:15:32;;;;;;;;;;;;;;;22.00;55.69;101810.56;5050614;28;20041;-49
2022/09/05 09:18:00;;;;;;;21.52;5.63;;;;;;;22.08;55.23;101803.41;5032778;28;19929;-53
2022/09/05 09:20:55;;;;;;;15.20;5.05;;;;;;;22.13;55.13;101798.53;5035368;28;20037;-51
2022/09/05 09:23:40;;;;;;;8.70;4.97;;;;;;;22.20;54.87;101794.47;5047577;28;20044;-53
2022/09/05 09:26:26;;;;;;;13.43;5.67;;;;;;;22.29;54.66;101796.13;5032618;28;20521;-52
2022/09/05 09:29:09;;;;;;;10.18;3.95;;;;;;;22.31;55.10;101801.38;5035232;28;20300;-52
2022/09/05 09:31:55;;;;;;;15.20;4.97;;;;;;;22.35;54.91;101805.16;5044123;28;20064;-50
2022/09/05 09:34:27;;;;;;;12.35;4.25;;;;;;;22.45;53.64;101799.28;5050924;28;20052;-52
2022/09/05 09:37:49;;;;;;;9.13;4.35;;;;;;;22.62;53.07;101792.91;5056782;28;20044;-51
2022/09/05 09:40:34;;;;;;;16.13;5.22;;;;;;;22.76;52.55;101793.56;5028573;28;20384;-51
2022/09/05 09:43:26;;;;;;;11.43;5.13;;;;;;;22.87;52.30;101790.44;5039428;28;20447;-51
2022/09/05 09:46:04;;;;;;;18.67;5.15;;;;;;;22.89;52.39;101794.53;5049327;28;20051;-51
2022/09/05 09:48:44;;;;;;;18.40;5.00;;;;;;;22.93;52.22;101792.75;5033929;28;20045;-52
2022/09/05 09:51:18;;;;;;;12.90;5.25;;;;;;;22.93;52.05;101787.19;5033320;28;20045;-53
2022/09/05 09:54:15;;;;;;;11.35;4.55;;;;;;;22.93;51.74;101780.81;5051340;28;20044;-54
2022/09/05 09:57:04;;;;;;;9.45;3.90;;;;;;;22.89;51.72;101777.84;5051263;28;20075;-51
2022/09/05 10:00:01;;;;;;;13.80;5.05;;;;;;;22.92;50.13;101774.44;5054861;28;20477;-53
2022/09/05 10:02:48;;;;;;;9.07;4.10;;;;;;;23.08;49.94;101785.06;5053318;28;20044;-53
2022/09/05 10:06:11;;;;;;;11.13;4.30;;;;;;;23.14;49.82;101780.97;5109243;27;20921;-52
2022/09/05 10:09:16;;;;;;;12.68;4.13;;;;;;;23.16;49.52;101773.09;5083263;28;20044;-51
2022/09/05 10:12:41;;;;;;;10.45;3.78;;;;;;;23.17;48.27;101770.00;5084386;28;20055;-51
2022/09/05 10:15:23;;;;;;;10.10;4.32;;;;;;;23.28;48.01;101776.03;5080619;28;20040;-53
2022/09/05 10:18:32;;;;;;;9.13;3.50;;;;;;;23.49;47.29;101769.75;5068849;28;20096;-51
2022/09/05 10:21:03;;;;;;;10.27;3.20;;;;;;;23.61;45.79;101761.50;5085931;28;20051;-51
2022/09/05 10:24:01;;;;;;;8.07;3.40;;;;;;;23.61;46.03;101762.31;5084503;28;20490;-52
2022/09/05 10:26:51;;;;;;;7.57;3.25;;;;;;;23.64;45.46;101755.25;5065213;28;20065;-51
2022/09/05 10:29:45;;;;;;;7.63;3.58;;;;;;;23.73;45.34;101747.72;5082979;28;20122;-53
2022/09/05 10:32:41;;;;;;;9.90;2.90;;;;;;;23.72;45.33;101746.06;5083109;28;20044;-53
2022/09/05 10:35:34;;;;;;;7.05;3.33;;;;;;;23.74;45.81;101741.03;5077103;28;20060;-48
2022/09/05 10:38:21;;;;;;;7.13;3.08;;;;;;;23.75;46.94;101745.44;5082008;28;20059;-50
2022/09/05 10:40:50;;;;;;;7.15;3.05;;;;;;;23.72;44.63;101743.28;5078585;28;20071;-54
2022/09/05 10:44:00;;;;;;;7.30;3.22;;;;;;;23.89;42.13;101736.84;5080613;28;20036;-53
2022/09/05 10:46:46;;;;;;;5.40;2.67;;;;;;;23.94;42.76;101733.88;5085275;28;20093;-55
2022/09/05 10:49:26;;;;;;;5.75;2.25;;;;;;;23.97;41.45;101732.38;5078341;28;20071;-52
2022/09/05 10:52:12;;;;;;;5.90;2.80;;;;;;;23.97;41.64;101729.59;5095911;28;20056;-51
2022/09/05 10:55:08;;;;;;;7.03;2.95;;;;;;;23.92;42.46;101735.34;5065659;28;20509;-57
2022/09/05 10:58:16;;;;;;;4.72;2.50;;;;;;;23.90;42.45;101726.53;5083495;28;20052;-55
2022/09/05 11:01:04;;;;;;;5.50;2.60;;;;;;;24.00;41.05;101734.47;5072210;28;20060;-53
2022/09/05 11:04:16;;;;;;;4.40;2.38;;;;;;;24.20;41.90;101730.91;5084367;28;20053;-52
2022/09/05 11:06:44;;;;;;;5.75;2.38;;;;;;;24.17;40.67;101731.59;5082054;28;20055;-54
2022/09/05 11:09:27;;;;;;;5.90;2.90;;;;;;;24.15;41.15;101725.53;5077193;28;20051;-50
2022/09/05 11:12:03;;;;;;;6.03;2.50;;;;;;;24.15;41.49;101728.31;5082991;28;20561;-53
2022/09/05 11:14:53;;;;;;;5.82;2.53;;;;;;;24.20;41.66;101730.91;5089536;28;20150;-52
2022/09/05 11:17:55;;;;;;;4.57;2.40;;;;;;;24.26;41.48;101727.91;5075446;28;20045;-53
2022/09/05 11:20:46;;;;;;;4.90;2.42;;;;;;;24.29;40.58;101721.66;5075110;28;20090;-50
2022/09/05 11:23:20;;;;;;;6.75;2.30;;;;;;;24.41;40.31;101721.72;5072244;28;20044;-52
2022/09/05 11:26:04;;;;;;;4.68;2.60;;;;;;;24.45;40.69;101720.69;5054706;28;20056;-55
2022/09/05 11:28:58;;;;;;;5.18;2.55;;;;;;;24.44;41.66;101715.47;5068529;28;20052;-49
2022/09/05 11:31:45;;;;;;;5.97;2.58;;;;;;;24.47;41.18;101709.25;5059604;28;20052;-50
2022/09/05 11:34:32;;;;;;;;;;;;;;;24.58;40.44;101715.22;5058882;28;20430;-52
2022/09/05 11:37:57;;;;;;;6.10;2.90;;;;;;;24.53;40.76;101719.03;5075277;28;19920;-53
2022/09/05 11:41:27;;;;;;;5.53;2.30;;;;;;;24.70;40.47;101708.88;5067929;28;20437;-51
2022/09/05 11:44:21;;;;;;;4.75;2.28;;;;;;;24.78;40.14;101708.78;5069209;28;20490;-48
2022/09/05 11:47:13;;;;;;;7.32;2.40;;;;;;;25.09;39.30;101713.06;5064895;28;20128;-52
2022/09/05 11:50:45;;;;;;;5.65;2.20;;;;;;;25.16;39.07;101704.94;5073988;28;20152;-54
2022/09/05 11:53:52;;;;;;;6.07;2.22;;;;;;;25.19;38.77;101706.25;5062472;28;20071;-54
2022/09/05 11:56:45;;;;;;;6.13;2.30;;;;;;;25.34;38.67;101719.50;5073598;28;20063;-52
2022/09/05 11:59:26;;;;;;;6.97;2.50;;;;;;;25.19;39.67;101700.69;5068605;28;20479;-53
2022/09/05 12:02:15;;;;;;;2.40;2.20;;;;;;;25.03;40.14;101706.06;5074705;28;20037;-50
2022/09/05 12:05:37;;;;;;;7.22;2.30;;;;;;;25.01;39.59;101703.63;5060993;28;20507;-52
2022/09/05 12:08:38;;;;;;;7.30;2.25;;;;;;;25.16;39.04;101701.31;5073163;28;20132;-52
2022/09/05 12:11:10;;;;;;;6.55;2.00;;;;;;;25.19;39.68;101700.69;5073456;28;20044;-51
2022/09/05 12:13:55;;;;;;;4.32;2.33;;;;;;;25.15;39.61;101699.69;5073937;28;20041;-54
2022/09/05 12:16:52;;;;;;;6.82;2.13;;;;;;;25.12;39.26;101701.22;5075584;28;20457;-53
2022/09/05 12:19:41;;;;;;;4.00;2.05;;;;;;;25.13;38.63;101707.59;5053944;28;20084;-51
2022/09/05 12:22:21;;;;;;;4.00;2.03;;;;;;;25.18;38.80;101694.25;5063157;28;20085;-55
2022/09/05 12:25:15;;;;;;;4.90;2.20;;;;;;;25.22;38.06;101692.41;5073796;28;20414;-52
2022/09/05 12:28:10;;;;;;;5.07;2.20;;;;;;;25.17;37.75;101697.38;5061835;28;20538;-51
2022/09/05 12:31:40;;;;;;;3.25;1.95;;;;;;;25.15;39.97;101689.34;5069982;28;20040;-51
2022/09/05 12:34:54;;;;;;;5.30;2.08;;;;;;;25.25;38.18;101683.34;5068788;28;20487;-53
2022/09/05 12:38:14;;;;;;;3.63;2.30;;;;;;;25.21;39.83;101682.44;5067177;28;20049;-51
2022/09/05 12:41:09;;;;;;;3.03;2.15;;;;;;;25.29;37.85;101683.47;5046453;28;20110;-50
2022/09/05 12:44:00;;;;;;;2.10;1.73;;;;;;;25.44;37.48;101677.19;5075106;28;20127;-52
2022/09/05 12:47:01;;;;;;;5.15;2.20;;;;;;;25.56;36.52;101673.59;5072838;28;20048;-53
2022/09/05 12:49:55;;;;;;;4.28;1.73;;;;;;;25.62;36.74;101674.19;5051527;28;20045;-54
2022/09/05 12:52:32;;;;;;;;;;;;;;;25.55;38.09;101680.34;5072383;28;20043;-53
2022/09/05 12:55:09;;;;;;;5.60;2.30;;;;;;;25.58;36.65;101673.25;5074104;28;19942;-54
2022/09/05 12:57:41;;;;;;;5.22;2.42;;;;;;;25.62;36.75;101675.00;5064521;28;20032;-54
2022/09/05 13:00:45;;;;;;;3.67;1.98;;;;;;;25.83;36.04;101668.44;5073862;28;20113;-56
2022/09/05 13:03:36;;;;;;;4.38;1.85;;;;;;;25.84;36.03;101670.88;5068220;28;20044;-51
2022/09/05 13:06:29;;;;;;;3.47;2.05;;;;;;;25.91;34.96;101664.75;5064814;28;20041;-51
2022/09/05 13:09:04;;;;;;;6.70;2.20;;;;;;;25.96;35.27;101669.28;5067482;28;20044;-51